createdAt,value
2023-05-14T06:52:52.729Z,82.77
2023-05-14T06:55:19.134Z,80.63
2023-05-14T06:57:45.573Z,78.16
2023-05-14T07:00:11.959Z,77.42
2023-05-14T07:02:38.398Z,75.23
2023-05-14T07:05:04.804Z,73.40
2023-05-14T07:07:31.199Z,71.80
2023-05-14T07:09:57.611Z,70.56
2023-05-14T07:12:23.994Z,69.22
2023-05-14T07:14:50.406Z,69.33
2023-05-14T07:17:16.900Z,68.93
2023-05-14T07:19:43.394Z,67.50
2023-05-14T07:22:09.759Z,68.53
2023-05-14T07:24:36.151Z,68.24
2023-05-14T07:27:02.596Z,69.02
2023-05-14T07:29:28.995Z,68.31
2023-05-14T07:31:55.395Z,68.42
2023-05-14T07:34:21.790Z,67.83
2023-05-14T07:36:48.170Z,67.54
2023-05-14T07:39:14.577Z,65.97
2023-05-14T07:41:41.013Z,65.63
2023-05-14T07:44:07.478Z,65.20
2023-05-14T07:46:33.867Z,66.31
2023-05-14T07:49:00.336Z,65.28
2023-05-14T07:51:26.727Z,64.11
2023-05-14T07:53:53.067Z,62.95
2023-05-14T07:56:19.474Z,62.81
2023-05-14T07:58:45.848Z,63.26
2023-05-14T08:01:12.226Z,62.94
2023-05-14T08:03:38.731Z,63.47
2023-05-14T08:06:05.184Z,63.22
2023-05-14T08:08:31.588Z,61.94
2023-05-14T08:10:58.018Z,62.09
2023-05-14T08:13:24.419Z,60.32
2023-05-14T08:15:50.816Z,61.93
2023-05-14T08:18:17.217Z,60.67
2023-05-14T08:20:43.670Z,61.09
2023-05-14T08:23:10.116Z,59.14
2023-05-14T08:25:36.537Z,61.38
2023-05-14T08:28:02.918Z,59.72
2023-05-14T08:30:29.348Z,58.55
2023-05-14T08:32:55.792Z,58.87
2023-05-14T08:35:22.250Z,57.28
2023-05-14T08:37:48.644Z,57.78
2023-05-14T08:40:15.076Z,57.32
2023-05-14T08:42:41.458Z,57.92
2023-05-14T08:45:07.874Z,58.02
2023-05-14T08:47:34.294Z,56.00
2023-05-14T08:50:00.709Z,54.55
2023-05-14T08:52:27.072Z,53.25
2023-05-14T08:54:53.467Z,54.82
2023-05-14T08:57:19.878Z,53.82
2023-05-14T08:59:46.281Z,54.03
2023-05-14T09:02:12.754Z,51.79
2023-05-14T09:04:39.144Z,51.94
2023-05-14T09:07:05.576Z,53.18
2023-05-14T09:09:31.953Z,52.08
2023-05-14T09:11:58.485Z,53.71
2023-05-14T09:14:24.906Z,54.60
2023-05-14T09:16:51.335Z,54.58
2023-05-14T09:19:17.957Z,52.43
2023-05-14T09:21:44.487Z,54.77
2023-05-14T09:24:10.880Z,52.22
2023-05-14T09:26:38.284Z,51.66
2023-05-14T09:29:04.720Z,52.34
2023-05-14T09:31:31.161Z,52.59
2023-05-14T09:33:57.561Z,53.46
2023-05-14T09:36:24.008Z,51.62
2023-05-14T09:38:50.420Z,50.67
2023-05-14T09:41:16.794Z,49.86
2023-05-14T09:43:43.302Z,50.91
2023-05-14T09:46:09.703Z,50.26
2023-05-14T09:48:36.105Z,51.95
2023-05-14T09:51:04.010Z,51.34
2023-05-14T09:53:31.064Z,52.16
2023-05-14T09:55:57.484Z,51.59
2023-05-14T09:58:23.892Z,52.41
2023-05-14T10:00:50.344Z,52.63
2023-05-14T10:03:19.571Z,53.14
2023-05-14T10:05:46.340Z,54.33
2023-05-14T10:08:12.837Z,54.07
2023-05-14T10:10:39.224Z,51.74
2023-05-14T10:13:05.629Z,51.34
2023-05-14T10:15:32.034Z,51.32
2023-05-14T10:17:58.525Z,50.08
2023-05-14T10:20:25.214Z,48.39
2023-05-14T10:22:51.881Z,49.27
2023-05-14T10:25:18.310Z,50.17
2023-05-14T10:27:44.726Z,48.82
2023-05-14T10:30:11.150Z,50.11
2023-05-14T10:32:37.568Z,49.51
2023-05-14T10:35:04.046Z,49.32
2023-05-14T10:37:30.455Z,49.30
2023-05-14T10:39:56.886Z,48.98
2023-05-14T10:42:23.310Z,48.22
2023-05-14T10:44:49.742Z,49.64
2023-05-14T10:47:16.393Z,49.61
2023-05-14T10:49:44.030Z,50.48
2023-05-14T10:52:10.496Z,48.63
2023-05-14T10:54:36.874Z,47.35
2023-05-14T10:57:03.305Z,47.51
2023-05-14T10:59:29.687Z,47.54
2023-05-14T11:01:56.179Z,48.43
2023-05-14T11:04:22.626Z,49.79
2023-05-14T11:06:49.014Z,49.11
2023-05-14T11:09:15.415Z,48.58
2023-05-14T11:11:41.802Z,49.64
2023-05-14T11:14:10.131Z,49.10
2023-05-14T11:16:36.627Z,49.30
2023-05-14T11:19:03.120Z,49.22
2023-05-14T11:21:29.738Z,49.56
2023-05-14T11:23:56.139Z,49.03
2023-05-14T11:26:22.569Z,48.87
2023-05-14T11:28:48.983Z,48.51
2023-05-14T11:31:15.420Z,48.96
2023-05-14T11:33:41.843Z,48.30
2023-05-14T11:36:08.247Z,48.32
2023-05-14T11:38:34.628Z,48.17
2023-05-14T11:41:01.049Z,46.51
2023-05-14T11:43:28.456Z,47.29
2023-05-14T11:45:54.935Z,48.28
2023-05-14T11:48:21.382Z,48.22
2023-05-14T11:50:47.765Z,46.91
2023-05-14T11:53:14.197Z,47.18
2023-05-14T11:55:40.578Z,47.88
2023-05-14T11:58:07.004Z,48.50
2023-05-14T12:00:33.407Z,48.90
2023-05-14T12:02:59.880Z,49.25
2023-05-14T12:05:26.387Z,50.05
2023-05-14T12:07:52.777Z,49.30
2023-05-14T12:10:19.174Z,49.53
2023-05-14T12:12:45.549Z,48.34
2023-05-14T12:15:11.993Z,46.20
2023-05-14T12:17:38.424Z,45.90
2023-05-14T12:20:04.894Z,46.68
2023-05-14T12:22:31.272Z,45.67
2023-05-14T12:24:57.800Z,46.15
2023-05-14T12:27:24.203Z,45.00
2023-05-14T12:29:50.611Z,44.99
2023-05-14T12:32:16.999Z,44.97
2023-05-14T12:34:43.420Z,46.67
2023-05-14T12:37:09.788Z,51.09
2023-05-14T12:39:36.197Z,48.19
2023-05-14T12:44:14.769Z,49.14
2023-05-14T12:46:41.227Z,47.33
2023-05-14T12:49:07.652Z,48.06
2023-05-14T12:51:34.036Z,47.44
2023-05-14T12:54:00.429Z,46.73
2023-05-14T12:56:26.898Z,47.89
2023-05-14T12:58:53.281Z,45.22
2023-05-14T13:01:19.873Z,42.25
2023-05-14T13:03:46.301Z,43.78
2023-05-14T13:06:12.685Z,41.89
2023-05-14T13:08:40.133Z,40.10
2023-05-14T13:11:07.845Z,41.47
2023-05-14T13:13:34.341Z,41.45
2023-05-14T13:16:00.772Z,41.31
2023-05-14T13:18:27.256Z,41.27
2023-05-14T13:20:53.663Z,39.83
2023-05-14T13:23:20.073Z,41.14
2023-05-14T13:25:48.485Z,40.38
2023-05-14T13:28:16.204Z,40.30
2023-05-14T13:30:42.608Z,40.65
2023-05-14T13:33:09.122Z,42.08
2023-05-14T13:35:35.593Z,39.89
2023-05-14T13:38:02.042Z,43.60
2023-05-14T13:40:28.456Z,42.99
2023-05-14T13:42:54.831Z,41.41
2023-05-14T13:45:21.276Z,40.87
2023-05-14T13:47:48.788Z,41.67
2023-05-14T13:50:15.967Z,38.67
2023-05-14T13:52:42.356Z,39.43
2023-05-14T13:55:08.740Z,41.10
2023-05-14T13:57:35.157Z,41.25
2023-05-14T14:00:01.642Z,43.86
2023-05-14T14:02:28.116Z,42.16
2023-05-14T14:04:54.576Z,41.96
2023-05-14T14:07:21.034Z,41.52
2023-05-14T14:09:47.569Z,40.51
2023-05-14T14:12:14.501Z,42.65
2023-05-14T14:14:41.009Z,42.09
2023-05-14T14:17:07.422Z,40.92
2023-05-14T14:19:33.844Z,43.04
2023-05-14T14:22:00.241Z,40.49
2023-05-14T14:24:26.716Z,39.29
2023-05-14T14:26:56.358Z,38.93
2023-05-14T14:30:50.077Z,40.52
2023-05-14T14:33:16.565Z,41.75
2023-05-14T14:35:42.963Z,41.97
2023-05-14T14:38:09.739Z,40.90
2023-05-14T14:40:36.282Z,41.59
2023-05-14T14:43:02.760Z,42.02
2023-05-14T14:45:29.141Z,41.44
2023-05-14T14:47:55.579Z,41.41
2023-05-14T14:50:22.005Z,40.97
2023-05-14T14:52:48.394Z,39.26
2023-05-14T14:55:14.892Z,38.87
2023-05-14T14:57:41.402Z,39.93
2023-05-14T15:00:07.989Z,39.26
2023-05-14T15:02:34.878Z,39.01
2023-05-14T15:05:01.457Z,38.91
2023-05-14T15:07:27.966Z,37.57
2023-05-14T15:09:54.379Z,37.19
2023-05-14T15:12:20.883Z,38.07
2023-05-14T15:14:47.351Z,37.80
2023-05-14T15:17:13.804Z,38.73
2023-05-14T15:19:40.199Z,39.10
2023-05-14T15:22:06.651Z,40.01
2023-05-14T15:24:33.059Z,40.97
2023-05-14T15:26:59.488Z,41.28
2023-05-14T15:29:25.961Z,40.88
2023-05-14T15:31:52.464Z,40.63
2023-05-14T15:34:18.991Z,42.39
2023-05-14T15:36:47.578Z,42.88
2023-05-14T15:39:14.010Z,42.82
2023-05-14T15:41:40.406Z,41.66
2023-05-14T15:44:06.850Z,42.33
2023-05-14T15:46:33.253Z,41.64
2023-05-14T15:48:59.704Z,42.33
2023-05-14T15:51:26.114Z,42.12
2023-05-14T15:53:52.560Z,42.52
2023-05-14T15:56:18.928Z,43.16
2023-05-14T15:58:45.340Z,45.84
2023-05-14T16:01:11.711Z,45.31
2023-05-14T16:03:38.197Z,47.08
2023-05-14T16:06:04.752Z,49.40
2023-05-14T16:08:31.223Z,51.96
2023-05-14T16:10:57.605Z,51.59
2023-05-14T16:13:24.059Z,55.68
2023-05-14T16:15:50.464Z,57.15
2023-05-14T16:18:16.902Z,56.49
2023-05-14T16:20:43.369Z,52.59
2023-05-14T16:23:09.836Z,55.00
2023-05-14T16:25:36.306Z,50.93
2023-05-14T16:28:02.797Z,50.66
2023-05-14T16:30:29.298Z,53.76
2023-05-14T16:32:55.848Z,56.44
2023-05-14T16:35:22.365Z,55.92
2023-05-14T16:37:48.934Z,52.10
2023-05-14T16:40:15.488Z,52.63
2023-05-14T16:42:42.154Z,52.97
2023-05-14T16:45:08.545Z,50.44
2023-05-14T16:47:35.272Z,51.72
2023-05-14T16:50:01.997Z,52.15
2023-05-14T16:52:28.666Z,51.47
2023-05-14T16:54:55.075Z,53.24
2023-05-14T16:57:21.458Z,51.46
2023-05-14T16:59:47.863Z,50.99
2023-05-14T17:02:14.306Z,51.82
2023-05-14T17:04:40.797Z,51.79
2023-05-14T17:07:07.286Z,50.76
2023-05-14T17:09:33.710Z,51.59
2023-05-14T17:12:00.259Z,53.41
2023-05-14T17:14:26.681Z,52.17
2023-05-14T17:16:53.103Z,51.31
2023-05-14T17:19:19.488Z,50.95
2023-05-14T17:21:45.881Z,52.39
2023-05-14T17:24:12.265Z,52.10
2023-05-14T17:26:38.687Z,51.04
2023-05-14T17:29:05.102Z,51.18
2023-05-14T17:31:31.536Z,51.90
2023-05-14T17:33:57.968Z,52.73
2023-05-14T17:36:24.380Z,52.29
2023-05-14T17:38:50.871Z,52.29
2023-05-14T17:41:17.266Z,53.53
2023-05-14T17:43:43.680Z,52.78
2023-05-14T17:46:10.282Z,52.85
2023-05-14T17:48:36.828Z,52.60
2023-05-14T17:51:03.243Z,53.66
2023-05-14T17:53:29.628Z,53.51
2023-05-14T17:55:56.120Z,54.41
2023-05-14T17:58:22.546Z,54.15
2023-05-14T18:00:49.023Z,53.96
2023-05-14T18:03:15.595Z,54.71
2023-05-14T18:05:42.077Z,54.21
2023-05-14T18:08:08.518Z,54.28
2023-05-14T18:10:34.967Z,53.91
2023-05-14T18:13:01.461Z,53.41
2023-05-14T18:15:27.918Z,53.13
2023-05-14T18:17:54.607Z,53.10
2023-05-14T18:20:21.237Z,53.21
2023-05-14T18:22:47.705Z,53.36
2023-05-14T18:25:14.226Z,53.87
2023-05-14T18:27:40.756Z,53.10
2023-05-14T18:30:07.291Z,52.95
2023-05-14T18:32:34.772Z,53.03
2023-05-14T18:35:01.284Z,52.90
2023-05-14T18:37:27.821Z,55.05
2023-05-14T18:39:54.327Z,56.22
2023-05-14T18:42:20.795Z,56.77
2023-05-14T18:44:47.462Z,56.69
2023-05-14T18:47:13.998Z,56.96
2023-05-14T18:49:40.762Z,58.28
2023-05-14T18:52:07.412Z,59.01
2023-05-14T18:54:34.046Z,59.23
2023-05-14T18:57:00.661Z,59.72
2023-05-14T18:59:28.305Z,60.96
2023-05-14T19:01:55.123Z,62.12
2023-05-14T19:04:21.789Z,63.37
2023-05-14T19:06:48.314Z,65.01
2023-05-14T19:09:15.022Z,65.49
2023-05-14T19:11:41.570Z,67.32
2023-05-14T19:14:08.194Z,67.67
2023-05-14T19:16:34.900Z,70.04
2023-05-14T19:19:01.568Z,68.42
2023-05-14T19:21:28.167Z,68.53
2023-05-14T19:23:54.775Z,69.01
2023-05-14T19:26:21.317Z,68.94
2023-05-14T19:28:47.820Z,69.49
2023-05-14T19:31:14.386Z,68.99
2023-05-14T19:33:41.029Z,69.48
2023-05-14T19:36:10.838Z,69.34
2023-05-14T19:38:37.436Z,69.50
2023-05-14T19:41:04.054Z,70.42
2023-05-14T19:43:30.663Z,70.24
2023-05-14T19:45:57.775Z,70.25
2023-05-14T19:48:24.980Z,68.04
2023-05-14T19:50:51.617Z,68.71
2023-05-14T19:53:18.255Z,67.65
2023-05-14T19:55:44.872Z,66.88
2023-05-14T19:58:11.560Z,67.27
2023-05-14T20:00:38.126Z,66.42
2023-05-14T20:03:04.817Z,66.09
2023-05-14T20:05:31.331Z,66.10
2023-05-14T20:07:57.778Z,65.70
2023-05-14T20:10:26.578Z,65.25
2023-05-14T20:12:53.375Z,65.15
2023-05-14T20:15:19.902Z,65.84
2023-05-14T20:17:47.495Z,66.38
2023-05-14T20:20:14.105Z,66.59
2023-05-14T20:22:40.798Z,68.19
2023-05-14T20:25:07.287Z,70.01
2023-05-14T20:27:33.757Z,70.18
2023-05-14T20:30:00.177Z,70.50
2023-05-14T20:32:26.627Z,70.18
2023-05-14T20:34:53.040Z,71.59
2023-05-14T20:37:19.441Z,72.16
2023-05-14T20:39:45.909Z,72.96
2023-05-14T20:42:12.339Z,73.31
2023-05-14T20:44:38.735Z,73.16
2023-05-14T20:47:05.265Z,72.70
2023-05-14T20:49:31.646Z,73.13
2023-05-14T20:51:58.057Z,73.44
2023-05-14T20:54:24.470Z,73.74
2023-05-14T20:56:50.986Z,73.80
2023-05-14T20:59:17.403Z,74.01
2023-05-14T21:01:43.890Z,74.13
2023-05-14T21:04:10.402Z,74.11
2023-05-14T21:06:36.916Z,72.78
2023-05-14T21:09:03.310Z,72.63
2023-05-14T21:11:29.822Z,74.27
2023-05-14T21:13:56.271Z,75.29
2023-05-14T21:16:22.744Z,73.83
2023-05-14T21:18:49.209Z,73.17
2023-05-14T21:21:15.634Z,73.20
2023-05-14T21:23:42.064Z,72.79
2023-05-14T21:26:08.533Z,73.14
2023-05-14T21:28:34.924Z,72.80
2023-05-14T21:31:01.358Z,73.18
2023-05-14T21:33:27.792Z,72.85
2023-05-14T21:35:54.164Z,72.95
2023-05-14T21:38:20.627Z,73.21
2023-05-14T21:40:47.000Z,74.10
2023-05-14T21:43:13.511Z,73.35
2023-05-14T21:45:39.908Z,73.07
2023-05-14T21:48:06.384Z,73.59
2023-05-14T21:50:32.831Z,73.64
2023-05-14T21:52:59.192Z,73.26
2023-05-14T21:55:25.878Z,73.89
2023-05-14T21:57:52.643Z,73.89
2023-05-14T22:00:19.057Z,73.98
2023-05-14T22:02:45.514Z,73.98
2023-05-14T22:05:11.914Z,73.79
2023-05-14T22:07:38.294Z,74.16
2023-05-14T22:10:04.665Z,72.94
2023-05-14T22:12:31.067Z,72.71
2023-05-14T22:14:57.477Z,72.71
2023-05-14T22:17:23.916Z,71.57
2023-05-14T22:19:50.287Z,71.13
2023-05-14T22:22:16.673Z,70.89
2023-05-14T22:24:43.102Z,70.61
2023-05-14T22:27:09.473Z,70.26
2023-05-14T22:29:38.176Z,70.04
2023-05-14T22:32:04.846Z,69.28
2023-05-14T22:34:31.271Z,69.81
2023-05-14T22:36:57.659Z,69.34
2023-05-14T22:39:24.107Z,68.94
2023-05-14T22:41:50.512Z,68.89
2023-05-14T22:44:16.953Z,68.27
2023-05-14T22:46:43.449Z,69.45
2023-05-14T22:49:09.875Z,68.00
2023-05-14T22:51:36.280Z,68.85
2023-05-14T22:54:02.672Z,69.61
2023-05-14T22:56:29.111Z,69.23
2023-05-14T22:58:55.546Z,67.50
2023-05-14T23:01:21.973Z,67.63
2023-05-14T23:03:48.377Z,68.17
2023-05-14T23:06:14.743Z,68.37
2023-05-14T23:08:41.159Z,68.38
2023-05-14T23:11:07.534Z,68.89
2023-05-14T23:13:33.970Z,69.41
2023-05-14T23:16:00.367Z,68.88
2023-05-14T23:18:26.903Z,69.07
2023-05-14T23:20:53.518Z,69.16
2023-05-14T23:23:19.916Z,69.99
2023-05-14T23:25:46.285Z,69.61
2023-05-14T23:28:12.689Z,70.90
2023-05-14T23:30:39.093Z,70.94
2023-05-14T23:33:05.532Z,71.54
2023-05-14T23:35:31.939Z,71.03
2023-05-14T23:37:58.332Z,70.83
2023-05-14T23:40:24.740Z,70.63
2023-05-14T23:42:51.210Z,70.89
2023-05-14T23:45:17.627Z,70.46
2023-05-14T23:47:44.102Z,69.63
2023-05-14T23:50:10.551Z,69.36
2023-05-14T23:52:36.914Z,69.95
2023-05-14T23:55:03.335Z,69.41
2023-05-14T23:57:29.725Z,69.49
2023-05-14T23:59:56.141Z,69.57
